createdAt,value
2019-05-12T00:01:10.689Z,100547.37
2019-05-12T00:03:45.149Z,100548.17
2019-05-12T00:06:17.776Z,100546.91
2019-05-12T00:08:50.331Z,100544.91
2019-05-12T00:11:22.319Z,100543.67
2019-05-12T00:13:54.445Z,100545.58
2019-05-12T00:16:28.389Z,100544.92
2019-05-12T00:19:01.061Z,100543.39
2019-05-12T00:21:32.968Z,100547.35
2019-05-12T00:24:14.254Z,100547.61
2019-05-12T00:26:47.749Z,100547.28
2019-05-12T00:29:20.077Z,100542.99
2019-05-12T00:31:52.056Z,100539.80
2019-05-12T00:34:25.629Z,100536.92
2019-05-12T00:36:57.801Z,100540.50
2019-05-12T00:39:31.353Z,100548.18
2019-05-12T00:42:04.261Z,100533.69
2019-05-12T00:44:39.067Z,100546.05
2019-05-12T00:47:11.063Z,100542.22
2019-05-12T00:49:43.410Z,100539.83
2019-05-12T00:52:15.275Z,100539.72
2019-05-12T00:54:48.273Z,100538.77
2019-05-12T00:57:20.267Z,100541.28
2019-05-12T00:59:52.965Z,100535.09
2019-05-12T01:02:25.011Z,100534.39
2019-05-12T01:04:58.138Z,100536.55
2019-05-12T01:07:30.106Z,100531.30
2019-05-12T01:10:05.046Z,100534.05
2019-05-12T01:12:38.308Z,100527.73
2019-05-12T01:15:10.649Z,100528.45
2019-05-12T01:17:43.024Z,100534.55
2019-05-12T01:20:18.016Z,100539.34
2019-05-12T01:22:50.610Z,100538.25
2019-05-12T01:25:22.982Z,100542.70
2019-05-12T01:27:55.029Z,100543.91
2019-05-12T01:30:28.422Z,100542.23
2019-05-12T01:33:00.945Z,100542.01
2019-05-12T01:35:33.199Z,100554.55
2019-05-12T01:38:07.784Z,100558.50
2019-05-12T01:40:41.456Z,100556.13
2019-05-12T01:43:13.608Z,100551.56
2019-05-12T01:45:48.247Z,100555.84
2019-05-12T01:48:19.994Z,100556.08
2019-05-12T01:50:51.917Z,100561.11
2019-05-12T01:53:23.913Z,100556.70
2019-05-12T01:55:55.866Z,100555.72
2019-05-12T01:58:27.988Z,100555.02
2019-05-12T02:01:02.950Z,100553.47
2019-05-12T02:03:34.073Z,100551.91
2019-05-12T02:06:08.269Z,100555.48
2019-05-12T02:08:47.740Z,100559.20
2019-05-12T02:11:34.693Z,100557.52
2019-05-12T02:14:09.173Z,100558.91
2019-05-12T02:16:40.519Z,100552.47
2019-05-12T02:19:13.029Z,100553.74
2019-05-12T02:21:48.831Z,100557.48
2019-05-12T02:24:27.121Z,100551.86
2019-05-12T02:27:01.459Z,100555.66
2019-05-12T02:29:39.381Z,100550.73
2019-05-12T02:32:13.050Z,100562.84
2019-05-12T02:34:48.751Z,100554.67
2019-05-12T02:37:20.659Z,100552.61
2019-05-12T02:39:55.573Z,100555.51
2019-05-12T02:42:27.117Z,100556.55
2019-05-12T02:44:59.037Z,100555.08
2019-05-12T02:47:30.917Z,100553.28
2019-05-12T02:50:05.329Z,100560.64
2019-05-12T02:52:36.720Z,100559.46
2019-05-12T02:55:08.875Z,100565.28
2019-05-12T02:57:45.341Z,100561.84
2019-05-12T03:00:17.565Z,100564.58
2019-05-12T03:02:54.601Z,100558.64
2019-05-12T03:05:25.274Z,100568.58
2019-05-12T03:07:58.328Z,100570.46
2019-05-12T03:10:30.206Z,100569.15
2019-05-12T03:13:04.289Z,100574.30
2019-05-12T03:15:37.425Z,100568.89
2019-05-12T03:18:14.340Z,100568.30
2019-05-12T03:20:46.726Z,100570.13
2019-05-12T03:23:19.478Z,100572.30
2019-05-12T03:25:54.822Z,100573.08
2019-05-12T03:28:27.266Z,100569.66
2019-05-12T03:31:01.042Z,100594.14
2019-05-12T03:33:42.757Z,100580.32
2019-05-12T03:36:10.195Z,100591.22
2019-05-12T03:38:44.708Z,100586.34
2019-05-12T03:41:15.971Z,100591.66
2019-05-12T03:43:48.067Z,100587.05
2019-05-12T03:46:19.966Z,100586.27
2019-05-12T03:48:55.379Z,100588.89
2019-05-12T03:51:29.045Z,100598.29
2019-05-12T03:54:04.420Z,100587.11
2019-05-12T03:56:35.329Z,100589.59
2019-05-12T03:59:08.554Z,100585.78
2019-05-12T04:01:41.072Z,100590.66
2019-05-12T04:04:15.177Z,100594.59
2019-05-12T04:06:49.881Z,100587.58
2019-05-12T04:09:24.621Z,100595.08
2019-05-12T04:11:56.512Z,100586.77
2019-05-12T04:14:28.499Z,100595.66
2019-05-12T04:17:00.967Z,100599.13
2019-05-12T04:19:36.110Z,100607.35
2019-05-12T04:22:11.442Z,100598.41
2019-05-12T04:24:49.870Z,100595.19
2019-05-12T04:27:24.998Z,100599.89
2019-05-12T04:29:58.612Z,100602.09
2019-05-12T04:32:35.812Z,100600.18
2019-05-12T04:35:07.524Z,100600.41
2019-05-12T04:37:40.532Z,100602.31
2019-05-12T04:40:16.766Z,100602.75
2019-05-12T04:42:48.785Z,100600.00
2019-05-12T04:45:25.499Z,100604.13
2019-05-12T04:47:57.619Z,100598.57
2019-05-12T04:50:30.089Z,100614.41
2019-05-12T04:53:05.750Z,100605.09
2019-05-12T04:55:36.782Z,100607.47
2019-05-12T04:58:08.802Z,100615.93
2019-05-12T05:00:40.823Z,100617.38
2019-05-12T05:03:14.106Z,100616.49
2019-05-12T05:05:46.392Z,100615.86
2019-05-12T05:08:19.831Z,100618.54
2019-05-12T05:10:54.646Z,100615.66
2019-05-12T05:13:26.214Z,100618.72
2019-05-12T05:15:58.195Z,100614.01
2019-05-12T05:18:30.336Z,100629.11
2019-05-12T05:21:04.529Z,100624.17
2019-05-12T05:23:38.448Z,100631.66
2019-05-12T05:26:24.235Z,100636.43
2019-05-12T05:28:43.971Z,100632.80
2019-05-12T05:31:17.649Z,100633.30
2019-05-12T05:33:50.279Z,100629.98
2019-05-12T05:36:22.168Z,100625.39
2019-05-12T05:38:57.352Z,100632.66
2019-05-12T05:41:27.587Z,100631.39
2019-05-12T05:43:59.424Z,100636.45
2019-05-12T05:46:33.450Z,100625.98
2019-05-12T05:49:04.883Z,100637.23
2019-05-12T05:51:39.588Z,100621.29
2019-05-12T05:54:10.644Z,100632.71
2019-05-12T05:56:50.690Z,100631.58
2019-05-12T05:59:16.205Z,100630.78
2019-05-12T06:01:51.945Z,100631.31
2019-05-12T06:04:23.768Z,100632.45
2019-05-12T06:06:56.120Z,100635.36
2019-05-12T06:09:29.174Z,100644.17
2019-05-12T06:12:07.535Z,100633.98
2019-05-12T06:14:36.352Z,100630.41
2019-05-12T06:17:08.213Z,100644.66
2019-05-12T06:19:40.182Z,100650.95
2019-05-12T06:22:15.054Z,100662.23
2019-05-12T06:24:49.104Z,100660.41
2019-05-12T06:27:24.265Z,100655.13
2019-05-12T06:30:00.806Z,100657.95
2019-05-12T06:32:30.025Z,100658.55
2019-05-12T06:35:04.477Z,100658.60
2019-05-12T06:37:36.430Z,100662.26
2019-05-12T06:40:09.221Z,100671.55
2019-05-12T06:42:43.572Z,100668.52
2019-05-12T06:45:15.206Z,100661.75
2019-05-12T06:47:49.670Z,100662.90
2019-05-12T06:50:23.740Z,100661.35
2019-05-12T06:52:56.262Z,100659.78
2019-05-12T06:55:39.442Z,100659.22
2019-05-12T06:58:13.968Z,100655.84
2019-05-12T07:00:47.399Z,100646.89
2019-05-12T07:03:25.784Z,100657.95
2019-05-12T07:05:55.204Z,100650.05
2019-05-12T07:08:32.775Z,100649.41
2019-05-12T07:11:08.429Z,100645.00
2019-05-12T07:13:43.593Z,100650.06
2019-05-12T07:16:22.910Z,100642.19
2019-05-12T07:18:54.028Z,100643.65
2019-05-12T07:21:34.477Z,100660.00
2019-05-12T07:24:10.906Z,100659.20
2019-05-12T07:26:39.980Z,100651.69
2019-05-12T07:29:13.419Z,100656.57
2019-05-12T07:31:47.095Z,100659.52
2019-05-12T07:34:19.125Z,100657.59
2019-05-12T07:36:53.791Z,100658.63
2019-05-12T07:39:26.263Z,100663.91
2019-05-12T07:42:03.482Z,100657.34
2019-05-12T07:44:40.037Z,100655.09
2019-05-12T07:47:10.212Z,100657.37
2019-05-12T07:49:44.118Z,100655.29
2019-05-12T07:52:15.735Z,100653.53
2019-05-12T07:54:52.598Z,100659.72
2019-05-12T07:57:27.920Z,100655.88
2019-05-12T08:00:03.647Z,100659.88
2019-05-12T08:02:35.891Z,100655.55
2019-05-12T08:05:10.982Z,100652.07
2019-05-12T08:07:43.827Z,100644.16
2019-05-12T08:10:19.843Z,100645.42
2019-05-12T08:12:51.089Z,100636.78
2019-05-12T08:15:25.414Z,100635.54
2019-05-12T08:17:59.711Z,100640.86
2019-05-12T08:20:34.061Z,100638.45
2019-05-12T08:23:10.353Z,100632.52
2019-05-12T08:25:40.040Z,100639.27
2019-05-12T08:28:18.069Z,100631.10
2019-05-12T08:30:50.563Z,100631.92
2019-05-12T08:33:19.235Z,100642.70
2019-05-12T08:35:55.175Z,100638.05
2019-05-12T08:38:29.024Z,100636.23
2019-05-12T08:41:05.350Z,100642.45
2019-05-12T08:43:40.446Z,100636.00
2019-05-12T08:46:15.525Z,100639.42
2019-05-12T08:48:51.647Z,100641.45
2019-05-12T08:51:20.333Z,100631.19
2019-05-12T08:53:56.219Z,100633.63
2019-05-12T08:56:26.321Z,100630.02
2019-05-12T08:59:01.136Z,100639.80
2019-05-12T09:01:34.392Z,100635.16
2019-05-12T09:04:13.134Z,100629.88
2019-05-12T09:06:43.422Z,100637.05
2019-05-12T09:09:14.980Z,100644.16
2019-05-12T09:11:46.932Z,100638.84
2019-05-12T09:14:18.864Z,100642.56
2019-05-12T09:16:55.952Z,100643.70
2019-05-12T09:19:27.101Z,100644.52
2019-05-12T09:21:58.447Z,100640.44
2019-05-12T09:24:33.371Z,100641.75
2019-05-12T09:27:08.870Z,100640.01
2019-05-12T09:29:38.941Z,100647.17
2019-05-12T09:32:15.478Z,100645.55
2019-05-12T09:34:53.061Z,100643.55
2019-05-12T09:37:21.169Z,100644.41
2019-05-12T09:39:53.816Z,100641.48
2019-05-12T09:42:29.929Z,100641.44
2019-05-12T09:45:00.028Z,100649.41
2019-05-12T09:47:34.333Z,100636.66
2019-05-12T09:50:09.727Z,100646.96
2019-05-12T09:52:41.175Z,100634.85
2019-05-12T09:55:14.758Z,100639.05
2019-05-12T09:57:48.642Z,100630.80
2019-05-12T10:00:23.946Z,100637.36
2019-05-12T10:02:59.553Z,100626.22
2019-05-12T10:05:30.422Z,100623.95
2019-05-12T10:08:04.907Z,100620.22
2019-05-12T10:10:40.339Z,100622.98
2019-05-12T10:13:13.829Z,100614.86
2019-05-12T10:18:52.753Z,100620.61
2019-05-12T10:21:36.580Z,100616.45
2019-05-12T10:24:20.350Z,100617.75
2019-05-12T10:26:55.732Z,100618.90
2019-05-12T10:29:32.431Z,100611.33
2019-05-12T10:32:13.409Z,100622.46
2019-05-12T10:34:56.313Z,100618.90
2019-05-12T10:40:24.979Z,100609.48
2019-05-12T10:43:08.301Z,100627.20
2019-05-12T10:45:40.248Z,100611.83
2019-05-12T10:48:37.432Z,100615.52
2019-05-12T10:51:13.465Z,100612.80
2019-05-12T10:53:59.881Z,100607.45
2019-05-12T10:56:28.348Z,100614.98
2019-05-12T10:59:08.894Z,100609.86
2019-05-12T11:01:47.215Z,100604.88
2019-05-12T11:04:35.867Z,100596.09
2019-05-12T11:07:00.694Z,100609.14
2019-05-12T11:09:34.502Z,100584.73
2019-05-12T11:12:08.383Z,100595.31
2019-05-12T11:14:40.654Z,100589.23
2019-05-12T11:17:13.774Z,100590.40
2019-05-12T11:19:50.063Z,100586.37
2019-05-12T11:22:19.958Z,100589.27
2019-05-12T11:24:56.453Z,100590.14
2019-05-12T11:27:29.209Z,100585.40
2019-05-12T11:30:01.246Z,100583.88
2019-05-12T11:32:37.892Z,100586.50
2019-05-12T11:35:10.695Z,100585.73
2019-05-12T11:37:42.763Z,100588.97
2019-05-12T11:40:16.228Z,100594.11
2019-05-12T11:42:59.118Z,100574.36
2019-05-12T11:45:24.038Z,100578.34
2019-05-12T11:47:56.924Z,100575.63
2019-05-12T11:50:29.155Z,100573.50
2019-05-12T11:53:01.118Z,100565.39
2019-05-12T11:55:45.960Z,100563.77
2019-05-12T11:58:17.974Z,100558.09
2019-05-12T12:00:53.330Z,100565.05
2019-05-12T12:03:29.639Z,100556.62
2019-05-12T12:06:01.603Z,100561.72
2019-05-12T12:08:37.073Z,100554.67
2019-05-12T12:11:10.648Z,100557.05
2019-05-12T12:13:40.959Z,100557.86
2019-05-12T12:16:14.131Z,100552.17
2019-05-12T12:18:49.743Z,100548.96
2019-05-12T12:21:19.778Z,100552.92
2019-05-12T12:23:53.435Z,100543.38
2019-05-12T12:26:30.431Z,100543.40
2019-05-12T12:29:03.184Z,100539.99
2019-05-12T12:31:54.409Z,100542.81
2019-05-12T12:34:30.149Z,100537.63
2019-05-12T12:36:59.946Z,100539.47
2019-05-12T12:39:31.854Z,100536.69
2019-05-12T12:42:04.486Z,100535.45
2019-05-12T12:44:38.104Z,100531.84
2019-05-12T12:47:10.049Z,100527.60
2019-05-12T12:49:45.277Z,100531.05
2019-05-12T12:52:16.346Z,100527.80
2019-05-12T12:54:48.285Z,100520.90
2019-05-12T12:57:20.305Z,100516.88
2019-05-12T12:59:55.023Z,100524.35
2019-05-12T13:02:26.946Z,100521.34
2019-05-12T13:05:00.607Z,100515.16
2019-05-12T13:07:33.415Z,100521.83
2019-05-12T13:10:09.430Z,100519.73
2019-05-12T13:12:40.439Z,100513.97
2019-05-12T13:15:14.515Z,100517.73
2019-05-12T13:17:47.571Z,100521.14
2019-05-12T13:20:21.029Z,100522.91
2019-05-12T13:22:53.686Z,100513.86
2019-05-12T13:25:25.724Z,100512.46
2019-05-12T13:28:01.454Z,100505.53
2019-05-12T13:30:45.088Z,100504.00
2019-05-12T13:33:08.987Z,100495.88
2019-05-12T13:35:39.628Z,100501.72
2019-05-12T13:38:11.572Z,100498.95
2019-05-12T13:40:47.306Z,100493.89
2019-05-12T13:43:24.219Z,100495.95
2019-05-12T13:46:00.143Z,100490.44
2019-05-12T13:48:33.059Z,100478.69
2019-05-12T13:51:12.146Z,100478.69
2019-05-12T13:53:46.354Z,100478.55
2019-05-12T13:56:19.413Z,100478.55
2019-05-12T13:58:54.189Z,100466.88
2019-05-12T14:01:26.194Z,100470.05
2019-05-12T14:03:58.286Z,100472.31
2019-05-12T14:06:35.582Z,100462.61
2019-05-12T14:09:07.010Z,100459.36
2019-05-12T14:11:39.072Z,100464.95
2019-05-12T14:14:15.216Z,100447.38
2019-05-12T14:16:53.578Z,100453.71
2019-05-12T14:19:20.328Z,100453.71
2019-05-12T14:21:54.321Z,100442.43
2019-05-12T14:24:26.560Z,100442.95
2019-05-12T14:26:58.457Z,100445.33
2019-05-12T14:29:30.764Z,100448.32
2019-05-12T14:32:05.367Z,100446.86
2019-05-12T14:34:37.531Z,100441.37
2019-05-12T14:37:17.545Z,100434.22
2019-05-12T14:39:53.731Z,100436.66
2019-05-12T14:42:33.895Z,100442.83
2019-05-12T14:44:59.306Z,100423.38
2019-05-12T14:47:31.289Z,100425.75
2019-05-12T14:50:08.605Z,100430.12
2019-05-12T14:52:41.083Z,100430.12
2019-05-12T14:55:13.939Z,100429.17
2019-05-12T14:57:46.053Z,100429.56
2019-05-12T15:00:21.213Z,100429.56
2019-05-12T15:02:53.968Z,100425.45
2019-05-12T15:05:27.692Z,100417.81
2019-05-12T15:08:00.542Z,100406.75
2019-05-12T15:10:34.919Z,100413.30
2019-05-12T15:13:06.972Z,100409.70
2019-05-12T15:15:43.938Z,100406.45
2019-05-12T15:18:16.035Z,100402.95
2019-05-12T15:20:51.456Z,100401.42
2019-05-12T15:23:32.458Z,100396.74
2019-05-12T15:26:09.225Z,100401.37
2019-05-12T15:28:38.015Z,100401.81
2019-05-12T15:31:13.737Z,100393.13
2019-05-12T15:33:45.242Z,100393.89
2019-05-12T15:36:17.166Z,100379.20
2019-05-12T15:38:55.725Z,100381.66
2019-05-12T15:41:26.557Z,100370.17
2019-05-12T15:43:58.947Z,100373.05
2019-05-12T15:46:34.609Z,100368.86
2019-05-12T15:49:08.640Z,100368.30
2019-05-12T15:51:51.243Z,100364.64
2019-05-12T15:54:14.667Z,100363.88
2019-05-12T15:56:46.723Z,100363.61
2019-05-12T15:59:18.742Z,100362.92
2019-05-12T16:01:53.307Z,100364.20
2019-05-12T16:04:27.000Z,100351.75
2019-05-12T16:06:59.986Z,100351.75
2019-05-12T16:09:34.192Z,100357.31
2019-05-12T16:12:18.712Z,100353.55
2019-05-12T16:14:41.241Z,100339.93
2019-05-12T16:17:16.816Z,100348.39
2019-05-12T16:19:50.327Z,100350.27
2019-05-12T16:22:30.600Z,100353.72
2019-05-12T16:25:04.324Z,100348.02
2019-05-12T16:27:39.525Z,100353.20
2019-05-12T16:30:13.767Z,100346.20
2019-05-12T16:32:47.885Z,100351.77
2019-05-12T16:35:26.395Z,100351.45
2019-05-12T16:37:53.944Z,100345.94
2019-05-12T16:40:27.471Z,100343.38
2019-05-12T16:43:00.170Z,100341.59
2019-05-12T16:45:34.043Z,100345.63
2019-05-12T16:48:28.581Z,100338.42
2019-05-12T16:50:46.910Z,100339.86
2019-05-12T16:53:38.476Z,100334.92
2019-05-12T16:56:11.677Z,100339.78
2019-05-12T16:58:48.635Z,100331.08
2019-05-12T17:01:29.270Z,100325.85
2019-05-12T17:04:04.377Z,100329.15
2019-05-12T17:06:47.162Z,100327.48
2019-05-12T17:09:26.785Z,100326.14
2019-05-12T17:12:00.863Z,100325.55
2019-05-12T17:14:49.895Z,100327.73
2019-05-12T17:17:21.250Z,100327.48
2019-05-12T17:20:08.964Z,100319.34
2019-05-12T17:22:54.608Z,100323.62
2019-05-12T17:25:26.181Z,100321.34
2019-05-12T17:28:03.619Z,100321.72
2019-05-12T17:30:43.543Z,100322.86
2019-05-12T17:33:22.445Z,100317.02
2019-05-12T17:36:11.926Z,100310.80
2019-05-12T17:42:33.615Z,100312.37
2019-05-12T17:45:39.722Z,100306.77
2019-05-12T17:48:15.794Z,100308.47
2019-05-12T17:51:08.155Z,100308.33
2019-05-12T17:53:44.676Z,100303.08
2019-05-12T17:56:25.138Z,100309.23
2019-05-12T17:58:55.125Z,100312.86
2019-05-12T18:01:35.518Z,100311.44
2019-05-12T18:04:10.426Z,100309.33
2019-05-12T18:06:46.107Z,100307.98
2019-05-12T18:09:23.631Z,100311.57
2019-05-12T18:11:56.376Z,100308.56
2019-05-12T18:14:30.873Z,100311.11
2019-05-12T18:17:14.343Z,100314.71
2019-05-12T18:19:58.988Z,100314.77
2019-05-12T18:22:33.841Z,100316.17
2019-05-12T18:25:09.215Z,100319.30
2019-05-12T18:27:44.505Z,100311.94
2019-05-12T18:30:23.794Z,100309.98
2019-05-12T18:33:08.675Z,100307.56
2019-05-12T18:35:47.985Z,100307.56
2019-05-12T18:38:23.929Z,100307.53
2019-05-12T18:40:55.765Z,100309.36
2019-05-12T18:43:28.575Z,100316.56
2019-05-12T18:46:08.725Z,100315.25
2019-05-12T18:48:41.588Z,100315.92
2019-05-12T18:51:18.995Z,100315.92
2019-05-12T18:54:03.763Z,100311.02
2019-05-12T18:56:36.764Z,100311.39
2019-05-12T18:59:16.369Z,100306.30
2019-05-12T19:01:47.733Z,100306.42
2019-05-12T19:04:23.666Z,100306.45
2019-05-12T19:07:15.311Z,100308.56
2019-05-12T19:09:47.425Z,100312.94
2019-05-12T19:12:21.595Z,100319.49
2019-05-12T19:14:55.768Z,100315.37
2019-05-12T19:17:36.576Z,100317.62
2019-05-12T19:20:09.667Z,100314.19
2019-05-12T19:22:59.794Z,100315.95
2019-05-12T19:25:35.416Z,100318.17
2019-05-12T19:28:24.896Z,100318.42
2019-05-12T19:31:06.227Z,100322.38
2019-05-12T19:34:15.694Z,100320.52
2019-05-12T19:36:36.001Z,100325.59
2019-05-12T19:39:09.187Z,100328.68
2019-05-12T19:41:55.681Z,100326.72
2019-05-12T19:44:36.864Z,100332.97
2019-05-12T19:47:09.134Z,100332.01
2019-05-12T19:49:49.913Z,100342.29
2019-05-12T19:52:57.687Z,100336.59
2019-05-12T19:55:33.619Z,100335.40
2019-05-12T19:58:53.680Z,100335.69
2019-05-12T20:01:00.901Z,100349.45
2019-05-12T20:03:33.638Z,100348.06
2019-05-12T20:06:33.738Z,100356.00
2019-05-12T20:09:10.942Z,100358.74
2019-05-12T20:11:54.966Z,100356.36
2019-05-12T20:14:46.051Z,100361.55
2019-05-12T20:17:20.226Z,100362.03
2019-05-12T20:23:14.160Z,100370.00
2019-05-12T20:25:59.285Z,100376.87
2019-05-12T20:28:31.327Z,100376.06
2019-05-12T20:31:08.530Z,100376.05
2019-05-12T20:33:40.595Z,100382.03
2019-05-12T20:36:20.678Z,100382.36
2019-05-12T20:38:53.931Z,100388.16
2019-05-12T20:41:30.143Z,100392.50
2019-05-12T20:44:02.344Z,100396.31
2019-05-12T20:46:39.084Z,100403.44
2019-05-12T20:49:12.618Z,100403.06
2019-05-12T20:51:56.838Z,100406.14
2019-05-12T20:54:24.933Z,100416.26
2019-05-12T20:57:02.658Z,100419.52
2019-05-12T20:59:34.295Z,100418.48
2019-05-12T21:02:07.859Z,100428.71
2019-05-12T21:04:39.779Z,100423.20
2019-05-12T21:07:28.280Z,100429.14
2019-05-12T21:10:04.205Z,100427.27
2019-05-12T21:12:39.974Z,100429.57
2019-05-12T21:15:20.326Z,100428.73
2019-05-12T21:18:06.621Z,100438.44
2019-05-12T21:20:33.698Z,100441.81
2019-05-12T21:23:24.545Z,100446.82
2019-05-12T21:26:17.317Z,100446.42
2019-05-12T21:28:49.244Z,100451.41
2019-05-12T21:31:30.953Z,100450.11
2019-05-12T21:34:37.908Z,100450.98
2019-05-12T21:37:17.118Z,100453.39
2019-05-12T21:42:34.437Z,100455.30
2019-05-12T21:45:30.870Z,100452.88
2019-05-12T21:49:10.349Z,100453.25
2019-05-12T21:52:19.437Z,100455.41
2019-05-12T21:54:58.382Z,100463.97
2019-05-12T21:57:43.781Z,100467.22
2019-05-12T22:00:25.008Z,100464.02
2019-05-12T22:03:02.516Z,100462.78
2019-05-12T22:05:48.088Z,100465.91
2019-05-12T22:08:17.310Z,100465.78
2019-05-12T22:10:43.713Z,100464.59
2019-05-12T22:13:18.147Z,100467.05
2019-05-12T22:15:56.879Z,100469.21
2019-05-12T22:18:27.135Z,100466.66
2019-05-12T22:21:01.462Z,100467.04
2019-05-12T22:23:33.869Z,100465.72
2019-05-12T22:26:07.350Z,100465.45
2019-05-12T22:28:40.402Z,100463.75
2019-05-12T22:31:13.862Z,100455.36
2019-05-12T22:33:52.060Z,100462.00
2019-05-12T22:36:25.762Z,100459.80
2019-05-12T22:39:00.551Z,100461.45
2019-05-12T22:41:30.408Z,100460.62
2019-05-12T22:44:02.013Z,100449.84
2019-05-12T22:46:35.797Z,100454.16
2019-05-12T22:49:10.399Z,100457.06
2019-05-12T22:51:43.633Z,100455.70
2019-05-12T22:54:16.144Z,100450.06
2019-05-12T22:56:49.586Z,100448.59
2019-05-12T22:59:24.079Z,100444.50
2019-05-12T23:01:58.239Z,100442.90
2019-05-12T23:04:35.532Z,100446.02
2019-05-12T23:07:06.315Z,100442.42
2019-05-12T23:09:38.259Z,100433.37
2019-05-12T23:12:18.561Z,100435.06
2019-05-12T23:14:44.442Z,100440.22
2019-05-12T23:17:17.505Z,100433.30
2019-05-12T23:19:51.747Z,100437.77
2019-05-12T23:22:23.698Z,100430.71
2019-05-12T23:24:55.709Z,100440.53
2019-05-12T23:27:30.106Z,100435.31
2019-05-12T23:30:10.883Z,100433.99
2019-05-12T23:32:45.262Z,100435.56
2019-05-12T23:35:14.277Z,100432.66
2019-05-12T23:37:46.825Z,100436.75
2019-05-12T23:40:18.988Z,100430.42
2019-05-12T23:42:53.446Z,100431.47
2019-05-12T23:45:24.551Z,100424.99
2019-05-12T23:47:56.514Z,100442.05
2019-05-12T23:50:28.468Z,100434.19
2019-05-12T23:53:00.401Z,100433.02
2019-05-12T23:55:35.019Z,100432.36
2019-05-12T23:58:06.783Z,100422.45
